createdAt,value
2022-10-13T00:01:14.461Z,100.00
2022-10-13T00:03:42.846Z,100.00
2022-10-13T00:06:17.643Z,100.00
2022-10-13T00:08:45.615Z,100.00
2022-10-13T00:11:18.869Z,100.00
2022-10-13T00:13:46.614Z,100.00
2022-10-13T00:16:15.348Z,100.00
2022-10-13T00:18:42.909Z,100.00
2022-10-13T00:21:18.392Z,100.00
2022-10-13T00:23:46.992Z,100.00
2022-10-13T00:26:17.549Z,100.00
2022-10-13T00:28:48.447Z,100.00
2022-10-13T00:31:29.942Z,100.00
2022-10-13T00:33:58.455Z,100.00
2022-10-13T00:36:25.926Z,100.00
2022-10-13T00:38:53.515Z,100.00
2022-10-13T00:41:21.410Z,100.00
2022-10-13T00:43:54.597Z,100.00
2022-10-13T00:46:22.346Z,100.00
2022-10-13T00:48:55.879Z,100.00
2022-10-13T00:51:24.752Z,100.00
2022-10-13T00:53:53.029Z,100.00
2022-10-13T00:56:24.343Z,100.00
2022-10-13T00:58:51.987Z,100.00
2022-10-13T01:01:19.163Z,100.00
2022-10-13T01:03:46.145Z,100.00
2022-10-13T01:06:14.337Z,100.00
2022-10-13T01:08:41.544Z,100.00
2022-10-13T01:11:33.557Z,100.00
2022-10-13T01:14:15.765Z,100.00
2022-10-13T01:16:55.946Z,100.00
2022-10-13T01:20:05.822Z,100.00
2022-10-13T01:22:45.581Z,100.00
2022-10-13T01:25:20.413Z,100.00
2022-10-13T01:28:14.870Z,100.00
2022-10-13T01:31:08.496Z,100.00
2022-10-13T01:33:39.165Z,100.00
2022-10-13T01:36:14.604Z,100.00
2022-10-13T01:39:17.585Z,100.00
2022-10-13T01:41:50.195Z,100.00
2022-10-13T01:44:26.384Z,100.00
2022-10-13T01:46:54.065Z,100.00
2022-10-13T01:49:24.709Z,100.00
2022-10-13T01:51:52.067Z,100.00
2022-10-13T01:54:19.351Z,100.00
2022-10-13T01:56:54.082Z,100.00
2022-10-13T01:59:23.209Z,100.00
2022-10-13T02:02:38.325Z,100.00
2022-10-13T02:05:35.127Z,100.00
2022-10-13T02:08:08.037Z,100.00
2022-10-13T02:10:42.917Z,100.00
2022-10-13T02:13:11.577Z,100.00
2022-10-13T02:15:46.368Z,100.00
2022-10-13T02:18:15.391Z,100.00
2022-10-13T02:20:44.400Z,100.00
2022-10-13T02:23:14.782Z,100.00
2022-10-13T02:25:42.672Z,100.00
2022-10-13T02:28:11.214Z,100.00
2022-10-13T02:30:43.071Z,100.00
2022-10-13T02:33:11.260Z,100.00
2022-10-13T02:35:39.130Z,100.00
2022-10-13T02:38:06.619Z,100.00
2022-10-13T02:40:34.132Z,100.00
2022-10-13T02:43:01.273Z,100.00
2022-10-13T02:45:28.293Z,100.00
2022-10-13T02:47:56.282Z,100.00
2022-10-13T02:50:23.289Z,100.00
2022-10-13T02:52:50.677Z,100.00
2022-10-13T02:55:18.049Z,100.00
2022-10-13T02:57:46.018Z,100.00
2022-10-13T03:00:16.842Z,100.00
2022-10-13T03:02:44.441Z,100.00
2022-10-13T03:05:11.583Z,100.00
2022-10-13T03:07:38.569Z,100.00
2022-10-13T03:10:06.590Z,100.00
2022-10-13T03:12:33.780Z,100.00
2022-10-13T03:15:00.802Z,100.00
2022-10-13T03:17:28.220Z,100.00
2022-10-13T03:19:55.189Z,100.00
2022-10-13T03:22:22.552Z,100.00
2022-10-13T03:24:52.213Z,100.00
2022-10-13T03:27:19.201Z,100.00
2022-10-13T03:29:46.292Z,100.00
2022-10-13T03:32:13.857Z,100.00
2022-10-13T03:34:40.854Z,100.00
2022-10-13T03:37:07.912Z,100.00
2022-10-13T03:39:39.318Z,100.00
2022-10-13T03:42:07.479Z,100.00
2022-10-13T03:44:34.495Z,100.00
2022-10-13T03:47:01.811Z,100.00
2022-10-13T03:49:28.789Z,100.00
2022-10-13T03:51:55.808Z,100.00
2022-10-13T03:54:23.115Z,100.00
2022-10-13T03:56:53.246Z,100.00
2022-10-13T03:59:20.214Z,100.00
2022-10-13T04:01:47.555Z,100.00
2022-10-13T04:04:14.929Z,100.00
2022-10-13T04:06:42.595Z,100.00
2022-10-13T04:09:09.608Z,100.00
2022-10-13T04:11:36.930Z,100.00
2022-10-13T04:14:04.141Z,100.00
2022-10-13T04:16:31.801Z,100.00
2022-10-13T04:19:03.894Z,100.00
2022-10-13T04:21:33.436Z,100.00
2022-10-13T04:24:01.497Z,100.00
2022-10-13T04:26:31.205Z,100.00
2022-10-13T04:28:58.939Z,100.00
2022-10-13T04:31:28.901Z,100.00
2022-10-13T04:33:55.963Z,100.00
2022-10-13T04:36:23.720Z,100.00
2022-10-13T04:38:51.842Z,100.00
2022-10-13T04:41:19.609Z,100.00
2022-10-13T04:43:50.537Z,100.00
2022-10-13T04:46:23.541Z,100.00
2022-10-13T04:48:51.857Z,100.00
2022-10-13T04:51:22.480Z,100.00
2022-10-13T04:53:54.659Z,100.00
2022-10-13T04:56:21.922Z,100.00
2022-10-13T04:58:48.981Z,100.00
2022-10-13T05:01:21.853Z,100.00
2022-10-13T05:03:54.441Z,100.00
2022-10-13T05:06:27.546Z,100.00
2022-10-13T05:08:56.310Z,100.00
2022-10-13T05:11:24.366Z,100.00
2022-10-13T05:13:51.461Z,100.00
2022-10-13T05:16:20.999Z,100.00
2022-10-13T05:18:49.654Z,100.00
2022-10-13T05:21:19.293Z,100.00
2022-10-13T05:23:46.862Z,100.00
2022-10-13T05:26:16.023Z,100.00
2022-10-13T05:28:43.867Z,100.00
2022-10-13T05:31:22.160Z,100.00
2022-10-13T05:33:50.725Z,100.00
2022-10-13T05:36:25.479Z,100.00
2022-10-13T05:42:23.640Z,100.00
2022-10-13T05:44:51.259Z,100.00
2022-10-13T05:47:18.455Z,100.00
2022-10-13T05:53:03.025Z,100.00
2022-10-13T05:55:31.609Z,100.00
2022-10-13T05:58:17.169Z,100.00
2022-10-13T06:03:39.996Z,100.00
2022-10-13T06:06:42.943Z,100.00
2022-10-13T06:09:10.311Z,100.00
2022-10-13T06:11:37.743Z,100.00
2022-10-13T06:14:06.054Z,100.00
2022-10-13T06:16:36.288Z,100.00
2022-10-13T06:19:05.479Z,100.00
2022-10-13T06:21:36.804Z,100.00
2022-10-13T06:24:04.369Z,100.00
2022-10-13T06:26:31.354Z,100.00
2022-10-13T06:31:45.462Z,100.00
2022-10-13T06:34:13.018Z,100.00
2022-10-13T06:36:43.682Z,100.00
2022-10-13T06:39:11.913Z,100.00
2022-10-13T06:41:39.213Z,100.00
2022-10-13T06:44:06.293Z,100.00
2022-10-13T06:46:33.488Z,100.00
2022-10-13T06:49:00.837Z,100.00
2022-10-13T06:51:28.817Z,100.00
2022-10-13T06:53:57.134Z,100.00
2022-10-13T06:56:25.827Z,98.10
2022-10-13T06:58:53.020Z,96.05
2022-10-13T07:01:20.139Z,96.00
2022-10-13T07:03:51.303Z,93.93
2022-10-13T07:06:20.135Z,91.50
2022-10-13T07:08:47.450Z,91.66
2022-10-13T07:11:16.591Z,93.64
2022-10-13T07:13:47.972Z,86.19
2022-10-13T07:16:17.463Z,84.90
2022-10-13T07:18:44.508Z,89.51
2022-10-13T07:21:11.547Z,89.40
2022-10-13T07:23:38.840Z,89.34
2022-10-13T07:26:11.120Z,88.97
2022-10-13T07:28:38.817Z,85.24
2022-10-13T07:31:11.822Z,86.70
2022-10-13T07:33:39.475Z,88.51
2022-10-13T07:36:08.047Z,84.44
2022-10-13T07:38:35.056Z,87.46
2022-10-13T07:41:03.905Z,86.65
2022-10-13T07:43:31.387Z,83.75
2022-10-13T07:46:00.497Z,83.32
2022-10-13T07:48:28.529Z,83.66
2022-10-13T07:50:57.348Z,82.38
2022-10-13T07:53:24.413Z,82.42
2022-10-13T07:55:51.737Z,86.93
2022-10-13T07:58:18.735Z,83.22
2022-10-13T08:00:45.701Z,87.50
2022-10-13T08:03:12.961Z,86.92
2022-10-13T08:05:40.480Z,85.60
2022-10-13T08:08:07.518Z,81.37
2022-10-13T08:10:34.817Z,79.70
2022-10-13T08:13:01.807Z,80.33
2022-10-13T08:15:28.884Z,79.53
2022-10-13T08:17:56.221Z,77.87
2022-10-13T08:20:28.835Z,78.27
2022-10-13T08:23:03.567Z,79.81
2022-10-13T08:25:30.935Z,82.72
2022-10-13T08:28:00.476Z,81.12
2022-10-13T08:30:28.083Z,76.16
2022-10-13T08:32:55.186Z,78.64
2022-10-13T08:35:22.234Z,77.53
2022-10-13T08:37:49.560Z,78.13
2022-10-13T08:40:19.950Z,75.85
2022-10-13T08:42:47.138Z,74.58
2022-10-13T08:48:18.227Z,74.15
2022-10-13T08:50:49.008Z,76.26
2022-10-13T08:53:23.332Z,74.89
2022-10-13T08:56:10.512Z,72.97
2022-10-13T08:58:42.877Z,72.95
2022-10-13T09:01:20.438Z,72.36
2022-10-13T09:03:55.242Z,73.56
2022-10-13T09:06:41.997Z,75.61
2022-10-13T09:09:15.444Z,76.96
2022-10-13T09:11:46.334Z,76.10
2022-10-13T09:14:24.540Z,73.18
2022-10-13T09:16:55.721Z,74.97
2022-10-13T09:19:34.037Z,74.39
2022-10-13T09:22:14.592Z,74.45
2022-10-13T09:24:41.645Z,74.96
2022-10-13T09:27:15.212Z,76.87
2022-10-13T09:29:43.568Z,76.17
2022-10-13T09:32:19.674Z,77.85
2022-10-13T09:34:47.910Z,74.18
2022-10-13T09:37:25.542Z,74.79
2022-10-13T09:40:13.491Z,75.51
2022-10-13T09:42:40.938Z,74.66
2022-10-13T09:45:17.497Z,78.06
2022-10-13T09:47:53.791Z,77.16
2022-10-13T09:50:30.141Z,77.92
2022-10-13T09:53:34.450Z,77.73
2022-10-13T09:56:09.351Z,78.18
2022-10-13T09:58:43.092Z,77.71
2022-10-13T10:01:19.008Z,78.10
2022-10-13T10:03:46.660Z,78.50
2022-10-13T10:06:15.981Z,78.18
2022-10-13T10:09:02.629Z,75.32
2022-10-13T10:11:39.286Z,77.38
2022-10-13T10:14:26.465Z,75.30
2022-10-13T10:17:28.516Z,77.78
2022-10-13T10:20:17.212Z,78.23
2022-10-13T10:22:48.222Z,73.12
2022-10-13T10:25:47.484Z,75.17
2022-10-13T10:29:07.850Z,73.82
2022-10-13T10:32:15.371Z,76.50
2022-10-13T10:34:50.889Z,75.81
2022-10-13T10:37:40.827Z,76.36
2022-10-13T10:40:46.171Z,82.02
2022-10-13T10:43:31.893Z,76.11
2022-10-13T10:45:59.949Z,78.23
2022-10-13T10:48:38.293Z,77.83
2022-10-13T10:51:09.095Z,75.06
2022-10-13T10:53:39.894Z,74.78
2022-10-13T10:56:27.456Z,72.30
2022-10-13T10:59:02.028Z,71.90
2022-10-13T11:01:33.715Z,72.85
2022-10-13T11:04:28.752Z,78.75
2022-10-13T11:06:56.023Z,76.33
2022-10-13T11:09:41.140Z,77.34
2022-10-13T11:12:20.803Z,79.93
2022-10-13T11:15:08.344Z,78.48
2022-10-13T11:17:38.003Z,74.76
2022-10-13T11:20:17.941Z,70.85
2022-10-13T11:23:00.589Z,71.64
2022-10-13T11:25:47.598Z,69.54
2022-10-13T11:28:21.348Z,68.12
2022-10-13T11:30:50.748Z,70.83
2022-10-13T11:33:39.797Z,71.77
2022-10-13T11:36:31.802Z,75.73
2022-10-13T11:39:17.625Z,70.51
2022-10-13T11:41:58.591Z,75.84
2022-10-13T11:44:34.533Z,75.31
2022-10-13T11:47:40.429Z,75.93
2022-10-13T11:50:21.291Z,74.34
2022-10-13T11:52:58.086Z,70.41
2022-10-13T11:55:37.135Z,71.64
2022-10-13T11:58:16.078Z,71.22
2022-10-13T12:01:13.776Z,72.31
2022-10-13T12:03:43.879Z,74.53
2022-10-13T12:06:20.645Z,69.87
2022-10-13T12:08:49.459Z,71.85
2022-10-13T12:11:39.614Z,73.61
2022-10-13T12:14:16.794Z,75.77
2022-10-13T12:19:29.323Z,70.77
2022-10-13T12:21:59.048Z,71.75
2022-10-13T12:24:28.998Z,72.94
2022-10-13T12:26:57.359Z,74.31
2022-10-13T12:29:27.484Z,71.47
2022-10-13T12:31:55.316Z,72.96
2022-10-13T12:34:32.813Z,75.35
2022-10-13T12:37:03.161Z,75.19
2022-10-13T12:39:32.303Z,73.13
2022-10-13T12:42:01.239Z,72.90
2022-10-13T12:44:30.433Z,71.58
2022-10-13T12:47:02.269Z,73.54
2022-10-13T12:49:32.022Z,70.89
2022-10-13T12:52:24.123Z,73.42
2022-10-13T12:54:55.973Z,68.61
2022-10-13T12:57:36.189Z,73.37
2022-10-13T13:00:06.094Z,71.55
2022-10-13T13:02:33.733Z,70.39
2022-10-13T13:05:00.713Z,72.01
2022-10-13T13:07:37.058Z,70.15
2022-10-13T13:10:20.460Z,70.66
2022-10-13T13:12:49.636Z,70.20
2022-10-13T13:15:26.002Z,67.30
2022-10-13T13:17:58.719Z,68.54
2022-10-13T13:20:31.774Z,68.78
2022-10-13T13:22:59.595Z,69.93
2022-10-13T13:25:27.052Z,68.78
2022-10-13T13:27:54.262Z,69.87
2022-10-13T13:30:23.443Z,73.24
2022-10-13T13:32:51.450Z,69.41
2022-10-13T13:35:18.951Z,71.50
2022-10-13T13:37:50.400Z,68.74
2022-10-13T13:40:23.063Z,70.01
2022-10-13T13:42:50.619Z,67.97
2022-10-13T13:45:20.937Z,66.21
2022-10-13T13:47:49.872Z,65.19
2022-10-13T13:50:25.941Z,66.51
2022-10-13T13:52:56.601Z,67.58
2022-10-13T13:55:24.351Z,67.56
2022-10-13T13:57:51.370Z,67.18
2022-10-13T14:00:18.993Z,67.86
2022-10-13T14:02:50.536Z,66.65
2022-10-13T14:05:17.713Z,67.89
2022-10-13T14:07:47.600Z,67.17
2022-10-13T14:10:14.912Z,67.25
2022-10-13T14:12:41.894Z,67.25
2022-10-13T14:15:09.481Z,71.07
2022-10-13T14:17:36.883Z,70.80
2022-10-13T14:20:04.523Z,70.22
2022-10-13T14:22:33.218Z,68.10
2022-10-13T14:25:00.489Z,68.68
2022-10-13T14:27:27.505Z,67.91
2022-10-13T14:29:55.853Z,68.85
2022-10-13T14:32:23.405Z,71.86
2022-10-13T14:34:50.535Z,73.19
2022-10-13T14:37:22.158Z,68.52
2022-10-13T14:39:50.714Z,68.79
2022-10-13T14:42:17.714Z,69.47
2022-10-13T14:44:45.187Z,70.83
2022-10-13T14:47:12.466Z,70.87
2022-10-13T14:49:39.526Z,70.78
2022-10-13T14:52:06.759Z,73.49
2022-10-13T14:54:34.107Z,74.70
2022-10-13T14:57:05.221Z,74.76
2022-10-13T14:59:32.294Z,73.40
2022-10-13T15:01:59.642Z,72.95
2022-10-13T15:04:26.671Z,73.49
2022-10-13T15:06:53.659Z,72.33
2022-10-13T15:09:25.646Z,73.54
2022-10-13T15:12:00.714Z,76.31
2022-10-13T15:14:29.180Z,76.60
2022-10-13T15:16:56.793Z,76.10
2022-10-13T15:19:25.198Z,75.68
2022-10-13T15:21:53.218Z,76.98
2022-10-13T15:24:20.302Z,76.50
2022-10-13T15:26:52.184Z,77.95
2022-10-13T15:29:19.470Z,78.55
2022-10-13T15:31:46.631Z,78.88
2022-10-13T15:34:13.704Z,80.57
2022-10-13T15:36:40.966Z,81.98
2022-10-13T15:39:10.757Z,82.18
2022-10-13T15:41:37.737Z,84.14
2022-10-13T15:44:05.099Z,84.74
2022-10-13T15:46:32.075Z,85.32
2022-10-13T15:48:59.975Z,87.37
2022-10-13T15:51:27.338Z,89.12
2022-10-13T15:53:55.293Z,91.23
2022-10-13T15:56:22.310Z,92.25
2022-10-13T15:58:49.716Z,92.77
2022-10-13T16:01:16.899Z,93.75
2022-10-13T16:03:44.274Z,95.20
2022-10-13T16:06:12.635Z,96.12
2022-10-13T16:08:40.878Z,98.68
2022-10-13T16:11:13.643Z,100.00
2022-10-13T16:13:41.167Z,100.00
2022-10-13T16:16:08.639Z,100.00
2022-10-13T16:18:37.381Z,100.00
2022-10-13T16:21:22.952Z,100.00
2022-10-13T16:23:50.462Z,100.00
2022-10-13T16:26:18.211Z,100.00
2022-10-13T16:28:46.069Z,100.00
2022-10-13T16:31:15.604Z,100.00
2022-10-13T16:33:44.193Z,100.00
2022-10-13T16:36:16.897Z,100.00
2022-10-13T16:38:44.832Z,100.00
2022-10-13T16:41:16.911Z,100.00
2022-10-13T16:43:45.308Z,100.00
2022-10-13T16:46:13.790Z,100.00
2022-10-13T16:48:41.506Z,100.00
2022-10-13T16:51:12.319Z,100.00
2022-10-13T16:53:39.384Z,100.00
2022-10-13T16:56:07.495Z,100.00
2022-10-13T16:58:35.307Z,100.00
2022-10-13T17:01:08.812Z,100.00
2022-10-13T17:03:39.502Z,100.00
2022-10-13T17:06:07.034Z,100.00
2022-10-13T17:08:34.181Z,100.00
2022-10-13T17:11:02.534Z,100.00
2022-10-13T17:13:30.426Z,100.00
2022-10-13T17:15:57.473Z,100.00
2022-10-13T17:18:26.233Z,100.00
2022-10-13T17:20:55.381Z,100.00
2022-10-13T17:23:25.972Z,100.00
2022-10-13T17:25:54.315Z,100.00
2022-10-13T17:28:21.820Z,100.00
2022-10-13T17:30:58.077Z,100.00
2022-10-13T17:33:26.823Z,100.00
2022-10-13T17:36:02.236Z,100.00
2022-10-13T17:38:29.817Z,100.00
2022-10-13T17:41:01.379Z,100.00
2022-10-13T17:43:29.120Z,100.00
2022-10-13T17:46:17.895Z,100.00
2022-10-13T17:48:55.618Z,100.00
2022-10-13T17:51:23.281Z,100.00
2022-10-13T17:53:51.807Z,100.00
2022-10-13T17:56:21.666Z,100.00
2022-10-13T17:58:50.037Z,100.00
2022-10-13T18:01:20.043Z,100.00
2022-10-13T18:03:50.364Z,100.00
2022-10-13T18:06:19.656Z,100.00
2022-10-13T18:08:46.876Z,100.00
2022-10-13T18:11:16.711Z,100.00
2022-10-13T18:13:44.560Z,100.00
2022-10-13T18:16:16.956Z,100.00
2022-10-13T18:18:45.079Z,100.00
2022-10-13T18:21:14.076Z,100.00
2022-10-13T18:23:42.097Z,100.00
2022-10-13T18:26:12.463Z,100.00
2022-10-13T18:28:40.639Z,100.00
2022-10-13T18:31:10.528Z,100.00
2022-10-13T18:33:38.286Z,100.00
2022-10-13T18:36:16.918Z,100.00
2022-10-13T18:38:44.174Z,100.00
2022-10-13T18:41:11.181Z,100.00
2022-10-13T18:43:38.231Z,100.00
2022-10-13T18:46:05.781Z,100.00
2022-10-13T18:48:34.173Z,100.00
2022-10-13T18:51:06.099Z,100.00
2022-10-13T18:53:37.857Z,100.00
2022-10-13T18:56:10.875Z,100.00
2022-10-13T18:58:39.629Z,100.00
2022-10-13T19:01:08.875Z,100.00
2022-10-13T19:03:37.810Z,100.00
2022-10-13T19:06:06.930Z,100.00
2022-10-13T19:08:34.498Z,100.00
2022-10-13T19:11:01.775Z,100.00
2022-10-13T19:13:31.369Z,100.00
2022-10-13T19:16:02.026Z,100.00
2022-10-13T19:18:29.848Z,100.00
2022-10-13T19:20:56.928Z,100.00
2022-10-13T19:23:24.351Z,100.00
2022-10-13T19:25:54.015Z,100.00
2022-10-13T19:28:21.303Z,100.00
2022-10-13T19:30:48.629Z,100.00
2022-10-13T19:33:16.882Z,100.00
2022-10-13T19:35:53.995Z,100.00
2022-10-13T19:38:21.371Z,100.00
2022-10-13T19:40:49.678Z,100.00
2022-10-13T19:43:17.354Z,100.00
2022-10-13T19:45:57.402Z,100.00
2022-10-13T19:48:27.734Z,100.00
2022-10-13T19:50:55.021Z,100.00
2022-10-13T19:53:22.018Z,100.00
2022-10-13T19:55:49.106Z,100.00
2022-10-13T19:58:17.030Z,100.00
2022-10-13T20:00:45.091Z,100.00
2022-10-13T20:03:13.818Z,100.00
2022-10-13T20:05:46.120Z,100.00
2022-10-13T20:08:13.859Z,100.00
2022-10-13T20:10:42.462Z,100.00
2022-10-13T20:13:10.636Z,100.00
2022-10-13T20:15:43.014Z,100.00
2022-10-13T20:18:13.000Z,100.00
2022-10-13T20:20:41.513Z,100.00
2022-10-13T20:23:09.286Z,100.00
2022-10-13T20:25:38.924Z,100.00
2022-10-13T20:28:06.501Z,100.00
2022-10-13T20:30:33.609Z,100.00
2022-10-13T20:33:00.877Z,100.00
2022-10-13T20:35:28.180Z,100.00
2022-10-13T20:37:55.861Z,100.00
2022-10-13T20:40:22.994Z,100.00
2022-10-13T20:42:53.425Z,100.00
2022-10-13T20:45:20.655Z,100.00
2022-10-13T20:47:48.737Z,100.00
2022-10-13T20:50:16.111Z,100.00
2022-10-13T20:52:43.092Z,100.00
2022-10-13T20:55:10.212Z,100.00
2022-10-13T20:57:37.477Z,100.00
2022-10-13T21:00:05.988Z,100.00
2022-10-13T21:02:32.982Z,100.00
2022-10-13T21:05:00.631Z,100.00
2022-10-13T21:07:28.487Z,100.00
2022-10-13T21:09:55.615Z,100.00
2022-10-13T21:12:22.907Z,100.00
2022-10-13T21:14:49.986Z,100.00
2022-10-13T21:17:16.984Z,100.00
2022-10-13T21:19:44.296Z,100.00
2022-10-13T21:22:11.297Z,100.00
2022-10-13T21:24:38.317Z,100.00
2022-10-13T21:27:05.651Z,100.00
2022-10-13T21:29:32.656Z,100.00
2022-10-13T21:31:59.654Z,100.00
2022-10-13T21:34:26.984Z,100.00
2022-10-13T21:36:53.993Z,100.00
2022-10-13T21:39:20.994Z,100.00
2022-10-13T21:41:48.287Z,100.00
2022-10-13T21:44:15.416Z,100.00
2022-10-13T21:46:42.420Z,100.00
2022-10-13T21:49:09.714Z,100.00
2022-10-13T21:51:39.162Z,100.00
2022-10-13T21:54:09.001Z,100.00
2022-10-13T21:56:37.025Z,100.00
2022-10-13T21:59:04.785Z,100.00
2022-10-13T22:01:32.113Z,100.00
2022-10-13T22:04:01.619Z,100.00
2022-10-13T22:06:29.941Z,100.00
2022-10-13T22:08:58.422Z,100.00
2022-10-13T22:11:28.140Z,100.00
2022-10-13T22:13:58.976Z,100.00
2022-10-13T22:16:32.453Z,100.00
2022-10-13T22:19:00.062Z,100.00
2022-10-13T22:21:30.738Z,100.00
2022-10-13T22:24:02.241Z,100.00
2022-10-13T22:26:36.206Z,100.00
2022-10-13T22:29:04.763Z,100.00
2022-10-13T22:31:33.363Z,100.00
2022-10-13T22:34:05.727Z,100.00
2022-10-13T22:36:33.176Z,100.00
2022-10-13T22:39:02.800Z,100.00
2022-10-13T22:41:31.423Z,100.00
2022-10-13T22:43:59.611Z,100.00
2022-10-13T22:46:30.527Z,100.00
2022-10-13T22:48:58.399Z,100.00
2022-10-13T22:51:28.256Z,100.00
2022-10-13T22:53:55.801Z,100.00
2022-10-13T22:56:25.165Z,100.00
2022-10-13T22:59:00.846Z,100.00
2022-10-13T23:01:28.339Z,100.00
2022-10-13T23:03:56.935Z,100.00
2022-10-13T23:06:26.843Z,100.00
2022-10-13T23:08:53.954Z,100.00
2022-10-13T23:11:21.626Z,100.00
2022-10-13T23:13:49.101Z,100.00
2022-10-13T23:16:19.884Z,100.00
2022-10-13T23:18:47.684Z,100.00
2022-10-13T23:21:22.573Z,100.00
2022-10-13T23:24:02.107Z,100.00
2022-10-13T23:26:29.556Z,100.00
2022-10-13T23:28:57.611Z,100.00
2022-10-13T23:31:25.900Z,100.00
2022-10-13T23:33:53.300Z,100.00
2022-10-13T23:36:22.931Z,100.00
2022-10-13T23:38:55.102Z,100.00
2022-10-13T23:41:22.402Z,100.00
2022-10-13T23:43:49.410Z,100.00
2022-10-13T23:46:16.641Z,100.00
2022-10-13T23:48:43.920Z,100.00
2022-10-13T23:51:14.441Z,100.00
2022-10-13T23:53:42.185Z,100.00
2022-10-13T23:56:11.078Z,100.00
2022-10-13T23:58:39.925Z,100.00
